Time;durP1;ratioP1;P1;durP2;ratioP2;P2;SDS_P1;SDS_P2;PMS_P1;PMS_P2;Temp;Humidity;BMP_temperature;BMP_pressure;BME280_temperature;BME280_humidity;BME280_pressure;Samples;Min_cycle;Max_cycle;Signal;HPM_P1;HPM_P2
2023/03/25 00:01:39;;;;;;;9.20;5.20;;;;;;;11.06;78.70;98991.42;131087;1264;108519;-73
2023/03/25 00:04:44;;;;;;;8.50;5.70;;;;;;;11.07;78.94;99004.49;131255;1263;107597;-75
2023/03/25 00:07:52;;;;;;;9.10;5.80;;;;;;;11.04;78.46;99006.52;131044;1254;107244;-74
2023/03/25 00:11:00;;;;;;;9.10;6.70;;;;;;;10.95;78.76;99003.36;130943;1255;107567;-73
2023/03/25 00:14:06;;;;;;;10.20;6.30;;;;;;;10.86;79.09;99008.81;131041;1266;107401;-73
2023/03/25 00:17:12;;;;;;;8.90;5.40;;;;;;;10.78;79.29;99002.31;131126;1253;107508;-74
2023/03/25 00:20:19;;;;;;;10.60;6.10;;;;;;;10.75;79.21;99001.38;131199;1255;107310;-74
2023/03/25 00:23:24;;;;;;;9.00;5.80;;;;;;;10.74;79.40;99002.17;131307;1263;107253;-74
2023/03/25 00:26:31;;;;;;;9.40;5.90;;;;;;;10.72;79.23;99001.90;131104;1255;107756;-73
2023/03/25 00:29:36;;;;;;;8.80;6.20;;;;;;;10.70;79.46;98997.44;131181;1263;107367;-73
2023/03/25 00:32:44;;;;;;;8.60;6.10;;;;;;;10.68;79.17;98993.77;131191;1256;107242;-73
2023/03/25 00:35:57;;;;;;;11.00;6.90;;;;;;;10.63;78.91;98992.88;131201;1263;107528;-73
2023/03/25 00:39:03;;;;;;;9.10;6.50;;;;;;;10.56;78.96;98988.73;131177;1252;107450;-73
2023/03/25 00:42:10;;;;;;;9.80;5.80;;;;;;;10.51;79.27;98992.55;131085;1256;107581;-73
2023/03/25 00:45:15;;;;;;;9.90;5.90;;;;;;;10.48;79.29;98991.08;130968;1256;107522;-73
2023/03/25 00:48:21;;;;;;;9.40;6.20;;;;;;;10.49;79.03;98992.06;131096;1254;107508;-74
2023/03/25 00:51:30;;;;;;;9.20;6.20;;;;;;;10.50;79.19;98992.05;131307;1251;107563;-73
2023/03/25 00:54:36;;;;;;;9.50;6.10;;;;;;;10.49;79.04;98994.73;130952;1251;107383;-73
2023/03/25 00:57:42;;;;;;;7.60;5.80;;;;;;;10.46;79.05;99000.37;130972;1254;107286;-73
2023/03/25 01:00:48;;;;;;;9.50;7.30;;;;;;;10.42;78.88;99003.38;130960;1251;107579;-73
2023/03/25 01:03:56;;;;;;;7.60;5.20;;;;;;;10.36;79.10;99001.08;131012;1263;107420;-73
2023/03/25 01:07:02;;;;;;;6.90;5.00;;;;;;;10.31;79.11;98995.86;131233;1253;108729;-74
2023/03/25 01:10:10;;;;;;;8.50;5.40;;;;;;;10.29;79.17;98998.52;130969;1251;107483;-73
2023/03/25 01:13:16;;;;;;;8.40;5.80;;;;;;;10.28;79.11;98988.09;131087;1254;107510;-73
2023/03/25 01:16:22;;;;;;;9.40;6.20;;;;;;;10.28;79.20;98988.46;131196;1263;107604;-74
2023/03/25 01:19:29;;;;;;;8.50;6.20;;;;;;;10.28;79.17;98988.34;130975;1254;107561;-73
2023/03/25 01:22:34;;;;;;;9.50;6.80;;;;;;;10.26;79.24;98986.95;131108;1253;108649;-73
2023/03/25 01:25:40;;;;;;;8.40;5.90;;;;;;;10.22;78.88;98982.95;131147;1253;107515;-73
2023/03/25 01:28:46;;;;;;;8.80;5.60;;;;;;;10.17;79.49;98979.23;131244;1254;107361;-73
2023/03/25 01:31:52;;;;;;;8.70;5.30;;;;;;;10.13;79.46;98980.86;131229;1254;105441;-74
2023/03/25 01:34:58;;;;;;;10.30;6.30;;;;;;;10.12;79.67;98984.46;131028;1250;107455;-73
2023/03/25 01:38:04;;;;;;;10.50;6.70;;;;;;;10.12;79.36;98983.10;131141;1254;107543;-72
2023/03/25 01:41:10;;;;;;;10.50;7.00;;;;;;;10.13;79.09;98985.27;131228;1253;107573;-72
2023/03/25 01:44:48;;;;;;;10.90;7.20;;;;;;;10.10;79.50;98987.54;131287;1254;107504;-72
2023/03/25 01:48:00;;;;;;;11.00;6.80;;;;;;;10.06;79.26;98989.97;131021;1254;107873;-73
2023/03/25 01:51:10;;;;;;;9.30;7.30;;;;;;;10.02;79.51;98995.04;131063;1263;107780;-73
2023/03/25 01:54:17;;;;;;;12.60;7.40;;;;;;;9.97;79.81;98994.08;131013;1255;107527;-73
2023/03/25 01:57:24;;;;;;;10.70;6.50;;;;;;;9.93;79.68;98998.31;130999;1256;107461;-73
2023/03/25 02:00:30;;;;;;;9.70;6.30;;;;;;;9.87;79.72;98999.56;130977;1254;107498;-74
2023/03/25 02:03:37;;;;;;;11.90;7.40;;;;;;;9.84;80.04;98994.90;131002;1252;107532;-74
2023/03/25 02:06:45;;;;;;;9.50;7.00;;;;;;;9.83;79.92;98992.67;131025;1253;107454;-74
2023/03/25 02:09:51;;;;;;;10.90;8.00;;;;;;;9.82;80.00;98987.48;131052;1264;107481;-74
2023/03/25 02:12:58;;;;;;;11.60;8.10;;;;;;;9.81;79.94;98985.73;131263;1253;107869;-72
2023/03/25 02:16:19;;;;;;;10.60;7.90;;;;;;;9.80;79.99;98988.16;130863;1254;183206;-73
2023/03/25 02:19:55;;;;;;;12.60;8.50;;;;;;;9.79;79.77;98987.84;130986;1251;107586;-73
2023/03/25 02:23:40;;;;;;;10.40;6.90;;;;;;;9.78;79.83;98984.22;130913;1263;106182;-74
2023/03/25 02:27:32;;;;;;;10.70;6.50;;;;;;;9.75;80.01;98981.87;130943;1254;107390;-74
2023/03/25 02:31:06;;;;;;;12.40;7.50;;;;;;;9.74;80.40;98980.63;130711;1256;108116;-73
2023/03/25 02:34:38;;;;;;;11.00;7.80;;;;;;;9.73;80.11;98974.80;130921;1263;107516;-73
2023/03/25 02:38:05;;;;;;;10.40;7.60;;;;;;;9.76;80.16;98972.54;131014;1251;107517;-73
2023/03/25 02:41:16;;;;;;;13.50;8.60;;;;;;;9.75;80.30;98980.77;130704;1257;107503;-73
2023/03/25 02:44:30;;;;;;;11.60;7.90;;;;;;;9.71;80.37;98983.04;130743;1251;108641;-73
2023/03/25 02:47:41;;;;;;;11.00;7.70;;;;;;;9.68;80.20;98975.98;130686;1257;107528;-73
2023/03/25 02:50:51;;;;;;;10.10;7.00;;;;;;;9.66;80.31;98972.70;130896;1262;107689;-73
2023/03/25 02:54:01;;;;;;;9.70;6.30;;;;;;;9.62;80.49;98973.27;130776;1254;109435;-73
2023/03/25 02:57:09;;;;;;;11.00;7.00;;;;;;;9.59;80.36;98975.67;131155;1254;108626;-73
2023/03/25 03:00:20;;;;;;;10.90;7.80;;;;;;;9.58;80.41;98982.48;131027;1254;108594;-72
2023/03/25 03:03:27;;;;;;;10.80;7.40;;;;;;;9.57;80.50;98981.81;131197;1254;107502;-72
2023/03/25 03:06:39;;;;;;;10.30;7.30;;;;;;;9.55;80.37;98982.73;131188;1263;107484;-73
2023/03/25 03:09:50;;;;;;;10.10;7.50;;;;;;;9.49;80.35;98986.30;131038;1251;107283;-73
2023/03/25 03:13:08;;;;;;;12.40;8.50;;;;;;;9.43;80.26;98981.27;131143;1254;108018;-73
2023/03/25 03:16:25;;;;;;;9.60;6.50;;;;;;;9.38;80.42;98973.89;130980;1251;106495;-72
2023/03/25 03:19:38;;;;;;;11.00;8.00;;;;;;;9.33;80.57;98967.38;131118;1261;107375;-72
2023/03/25 03:22:51;;;;;;;15.20;11.20;;;;;;;9.32;80.74;98966.61;131155;1251;107250;-73
2023/03/25 03:26:04;;;;;;;11.20;8.00;;;;;;;9.34;80.82;98967.05;131045;1255;106795;-74
2023/03/25 03:29:16;;;;;;;13.30;8.50;;;;;;;9.36;80.74;98976.81;131130;1251;107532;-73
2023/03/25 03:32:27;;;;;;;10.90;7.90;;;;;;;9.36;80.81;98982.26;131223;1263;107430;-73
2023/03/25 03:35:38;;;;;;;10.90;7.50;;;;;;;9.35;80.96;98983.11;131255;1254;107532;-73
2023/03/25 03:38:48;;;;;;;13.20;9.60;;;;;;;9.35;80.81;98979.05;131217;1253;107216;-74
2023/03/25 03:42:00;;;;;;;13.20;9.20;;;;;;;9.32;80.89;98978.16;131001;1253;107461;-74
2023/03/25 03:45:11;;;;;;;9.60;6.30;;;;;;;9.31;81.15;98981.16;131067;1254;107383;-72
2023/03/25 03:48:22;;;;;;;9.80;7.00;;;;;;;9.33;81.08;98982.24;131135;1254;107396;-72
2023/03/25 03:51:33;;;;;;;9.60;7.40;;;;;;;9.38;81.05;98982.61;130986;1263;107405;-73
2023/03/25 03:54:46;;;;;;;8.70;6.80;;;;;;;9.39;80.96;98986.17;130994;1254;109026;-74
2023/03/25 03:57:57;;;;;;;9.90;7.20;;;;;;;9.43;80.97;98987.48;131015;1251;108279;-72
2023/03/25 04:01:10;;;;;;;11.70;8.50;;;;;;;9.44;81.02;98987.61;131016;1254;107581;-72
2023/03/25 04:04:20;;;;;;;11.40;8.60;;;;;;;9.43;81.27;98986.41;131048;1254;106835;-73
2023/03/25 04:07:37;;;;;;;9.20;6.60;;;;;;;9.40;81.10;98986.39;131033;1249;107611;-73
2023/03/25 04:10:53;;;;;;;10.40;6.80;;;;;;;9.37;81.10;98989.42;131241;1251;107357;-73
2023/03/25 04:14:02;;;;;;;10.40;6.70;;;;;;;9.37;81.13;98990.55;131002;1253;107540;-73
2023/03/25 04:17:08;;;;;;;10.40;7.10;;;;;;;9.38;81.00;98991.27;130985;1254;107237;-74
2023/03/25 04:20:17;;;;;;;10.60;7.80;;;;;;;9.39;80.94;98988.09;131024;1256;107448;-73
2023/03/25 04:23:23;;;;;;;19.70;13.50;;;;;;;9.39;80.92;98989.73;131045;1254;107589;-73
2023/03/25 04:26:32;;;;;;;24.50;18.30;;;;;;;9.36;80.69;98986.73;131041;1254;107265;-73
2023/03/25 04:29:39;;;;;;;17.70;12.30;;;;;;;9.31;80.71;98989.45;130966;1254;107393;-73
2023/03/25 04:32:46;;;;;;;13.10;10.40;;;;;;;9.24;80.54;98989.86;131126;1255;108476;-73
2023/03/25 04:35:51;;;;;;;10.60;7.30;;;;;;;9.17;80.36;98992.06;130969;1256;107457;-74
2023/03/25 04:38:57;;;;;;;12.60;8.70;;;;;;;9.12;80.40;98995.55;131124;1250;107407;-74
2023/03/25 04:42:04;;;;;;;8.60;6.50;;;;;;;9.08;80.30;99009.52;130973;1254;107616;-74
2023/03/25 04:45:15;;;;;;;9.80;6.40;;;;;;;9.03;80.25;99010.73;131256;1250;108320;-74
2023/03/25 04:48:24;;;;;;;8.90;6.50;;;;;;;9.01;80.16;99022.44;131421;1249;108597;-74
2023/03/25 04:51:31;;;;;;;9.90;7.40;;;;;;;8.98;80.21;99019.80;131131;1254;107381;-74
2023/03/25 04:54:38;;;;;;;10.40;6.60;;;;;;;8.95;80.22;99015.32;130994;1251;107381;-72
2023/03/25 04:57:46;;;;;;;9.80;6.60;;;;;;;8.94;80.46;99008.91;130972;1252;107276;-76
2023/03/25 05:00:53;;;;;;;9.60;7.20;;;;;;;8.93;80.31;99005.13;131156;1263;107550;-74
2023/03/25 05:04:04;;;;;;;9.10;7.00;;;;;;;8.90;80.23;99008.70;131021;1253;107347;-74
2023/03/25 05:07:10;;;;;;;8.10;6.00;;;;;;;8.85;80.27;99007.24;130985;1254;107530;-74
2023/03/25 05:10:17;;;;;;;6.80;4.60;;;;;;;8.83;80.06;99004.79;131172;1254;107931;-73
2023/03/25 05:13:22;;;;;;;5.90;5.10;;;;;;;8.83;79.99;99010.71;131020;1251;107273;-73
2023/03/25 05:16:27;;;;;;;7.50;5.00;;;;;;;8.83;79.94;99014.73;131433;1255;107536;-73
2023/03/25 05:19:33;;;;;;;8.10;5.20;;;;;;;8.88;79.78;99014.35;131175;1254;107549;-73
2023/03/25 05:22:40;;;;;;;8.60;5.50;;;;;;;8.95;79.94;99011.23;131126;1254;107734;-73
2023/03/25 05:25:47;;;;;;;11.50;8.50;;;;;;;9.03;79.91;99011.65;131000;1251;107227;-73
2023/03/25 05:28:55;;;;;;;8.90;6.70;;;;;;;9.09;79.87;99013.40;131021;1251;108660;-73
2023/03/25 05:32:01;;;;;;;9.50;7.00;;;;;;;9.14;79.85;99011.31;131044;1249;105629;-73
2023/03/25 05:35:08;;;;;;;10.50;7.30;;;;;;;9.16;80.05;99028.36;130999;1254;106944;-73
2023/03/25 05:38:17;;;;;;;8.50;5.40;;;;;;;9.16;80.25;99027.73;131056;1253;107505;-74
2023/03/25 05:41:31;;;;;;;8.90;4.70;;;;;;;9.21;80.30;99029.14;131047;1253;107326;-73
2023/03/25 05:44:37;;;;;;;7.80;5.60;;;;;;;9.27;80.12;99034.05;131036;1254;107403;-73
2023/03/25 05:47:43;;;;;;;7.60;5.30;;;;;;;9.37;80.45;99031.52;131107;1254;107266;-71
2023/03/25 05:50:49;;;;;;;10.00;7.30;;;;;;;9.48;80.37;99030.81;131212;1263;107244;-71
2023/03/25 05:53:55;;;;;;;9.20;6.60;;;;;;;9.55;80.30;99032.29;131294;1255;108798;-72
2023/03/25 05:57:00;;;;;;;10.40;6.50;;;;;;;9.63;80.62;99029.45;130959;1253;108582;-72
2023/03/25 06:00:09;;;;;;;9.20;6.50;;;;;;;9.71;80.59;99025.20;131188;1250;107549;-72
2023/03/25 06:03:19;;;;;;;8.50;5.50;;;;;;;9.75;80.73;99028.52;131218;1254;107455;-71
2023/03/25 06:06:26;;;;;;;8.20;5.30;;;;;;;9.78;80.69;99019.91;131113;1250;108058;-71
2023/03/25 06:09:33;;;;;;;8.50;5.80;;;;;;;9.81;80.83;99014.73;131034;1253;107352;-72
2023/03/25 06:12:39;;;;;;;9.60;6.40;;;;;;;9.88;80.95;99013.48;131045;1253;107454;-71
2023/03/25 06:15:46;;;;;;;10.00;6.80;;;;;;;9.94;80.80;99019.09;131030;1256;107638;-71
2023/03/25 06:18:55;;;;;;;9.80;7.20;;;;;;;10.03;80.84;99016.64;131110;1253;107422;-71
2023/03/25 06:22:00;;;;;;;11.80;6.90;;;;;;;10.14;80.85;99011.39;131183;1250;106362;-72
2023/03/25 06:25:08;;;;;;;11.30;7.10;;;;;;;10.24;80.81;99016.81;131052;1250;107427;-72
2023/03/25 06:28:17;;;;;;;9.20;6.90;;;;;;;10.27;80.55;99019.56;131055;1254;107561;-70
2023/03/25 06:31:26;;;;;;;8.80;6.90;;;;;;;10.24;80.84;99016.11;131135;1251;107490;-74
2023/03/25 06:34:32;;;;;;;8.80;6.50;;;;;;;10.21;80.55;99009.35;131018;1251;107367;-73
2023/03/25 06:37:39;;;;;;;11.70;7.40;;;;;;;10.22;80.63;99008.30;131018;1250;107244;-71
2023/03/25 06:40:49;;;;;;;10.30;7.20;;;;;;;10.31;80.79;99004.92;130967;1265;108576;-70
2023/03/25 06:43:55;;;;;;;10.40;7.50;;;;;;;10.37;80.80;99011.84;130977;1251;107266;-72
2023/03/25 06:47:21;;;;;;;11.00;7.30;;;;;;;10.40;80.64;99009.70;130777;1254;106461;-71
2023/03/25 06:50:29;;;;;;;10.60;7.50;;;;;;;10.41;80.55;99009.48;130866;1250;107247;-70
2023/03/25 06:53:35;;;;;;;11.20;7.60;;;;;;;10.43;80.67;99013.03;131076;1254;108055;-71
2023/03/25 06:56:41;;;;;;;10.30;7.30;;;;;;;10.45;81.01;99012.08;131257;1254;107534;-70
2023/03/25 06:59:48;;;;;;;9.40;6.70;;;;;;;10.52;80.93;99019.27;131161;1255;107500;-70
2023/03/25 07:02:54;;;;;;;9.50;6.40;;;;;;;10.59;80.98;99030.13;131184;1254;107472;-70
2023/03/25 07:05:59;;;;;;;10.50;7.10;;;;;;;10.72;81.37;99025.39;131203;1253;109606;-71
2023/03/25 07:09:05;;;;;;;10.50;7.70;;;;;;;10.91;81.08;99024.36;131252;1254;107228;-72
2023/03/25 07:12:11;;;;;;;11.20;7.90;;;;;;;11.13;80.74;99024.96;130989;1255;107534;-72
2023/03/25 07:15:16;;;;;;;11.00;7.50;;;;;;;11.35;80.84;99021.52;131021;1254;107523;-73
2023/03/25 07:18:23;;;;;;;10.20;7.40;;;;;;;11.57;80.84;99012.88;131220;1254;107379;-71
2023/03/25 07:21:28;;;;;;;8.70;6.50;;;;;;;11.79;80.39;99014.87;131285;1254;107629;-74
2023/03/25 07:24:34;;;;;;;10.30;7.10;;;;;;;11.91;79.75;99017.96;131032;1254;108191;-70
2023/03/25 07:27:40;;;;;;;9.10;6.40;;;;;;;12.06;79.65;99025.25;131214;1250;107648;-71
2023/03/25 07:30:48;;;;;;;9.60;5.40;;;;;;;12.26;79.45;99026.31;131049;1254;107527;-71
2023/03/25 07:33:54;;;;;;;8.50;4.50;;;;;;;12.50;79.18;99021.79;131117;1250;107531;-71
2023/03/25 07:37:00;;;;;;;6.90;4.20;;;;;;;12.71;78.38;99027.11;131235;1256;107511;-71
2023/03/25 07:40:07;;;;;;;9.70;4.50;;;;;;;12.78;76.44;99033.61;131155;1255;106710;-71
2023/03/25 07:43:12;;;;;;;8.20;5.10;;;;;;;12.85;77.20;99038.18;131029;1253;107538;-71
2023/03/25 07:46:23;;;;;;;7.50;4.50;;;;;;;12.90;77.32;99041.08;130831;1254;107552;-70
2023/03/25 07:49:28;;;;;;;8.50;4.50;;;;;;;12.94;77.24;99037.98;130926;1251;107504;-70
2023/03/25 07:52:34;;;;;;;6.70;4.80;;;;;;;12.99;77.54;99032.94;130767;1254;107547;-71
2023/03/25 07:55:40;;;;;;;5.80;4.20;;;;;;;13.07;77.48;99031.17;131175;1256;107401;-71
2023/03/25 07:58:46;;;;;;;7.10;4.40;;;;;;;13.13;77.29;99030.08;130981;1254;107436;-71
2023/03/25 08:01:51;;;;;;;6.10;4.50;;;;;;;13.20;77.50;99027.05;130943;1251;107257;-71
2023/03/25 08:04:57;;;;;;;7.60;5.10;;;;;;;13.29;77.04;99028.13;130992;1254;107568;-71
2023/03/25 08:08:04;;;;;;;8.20;4.40;;;;;;;13.36;77.04;99020.59;130985;1253;108402;-71
2023/03/25 08:11:10;;;;;;;6.60;5.60;;;;;;;13.44;76.91;99024.61;131156;1254;108545;-70
2023/03/25 08:14:16;;;;;;;7.20;5.10;;;;;;;13.46;76.24;99022.54;131203;1250;107279;-70
2023/03/25 08:17:21;;;;;;;6.80;4.60;;;;;;;13.43;76.58;99025.02;130914;1250;107134;-70
2023/03/25 08:20:27;;;;;;;6.60;4.30;;;;;;;13.46;76.63;99021.40;130889;1254;108071;-71
2023/03/25 08:23:35;;;;;;;6.60;4.90;;;;;;;13.48;76.26;99025.90;130992;1254;107585;-71
2023/03/25 08:26:42;;;;;;;7.10;5.60;;;;;;;13.54;76.30;99021.05;130982;1255;107896;-70
2023/03/25 08:29:56;;;;;;;8.50;5.00;;;;;;;13.58;75.14;99021.97;131079;1254;108449;-71
2023/03/25 08:33:02;;;;;;;4.90;3.90;;;;;;;13.56;74.45;99025.42;131014;1254;107366;-71
2023/03/25 08:36:12;;;;;;;6.40;4.10;;;;;;;13.52;75.13;99023.81;130873;1254;108221;-71
2023/03/25 08:39:20;;;;;;;5.60;4.00;;;;;;;13.54;74.27;99026.25;131026;1250;108315;-71
2023/03/25 08:42:26;;;;;;;7.50;4.20;;;;;;;13.53;74.35;99027.10;130969;1250;108539;-71
2023/03/25 08:45:33;;;;;;;4.70;3.50;;;;;;;13.50;74.03;99025.41;131068;1253;107514;-71
2023/03/25 08:48:40;;;;;;;5.20;3.30;;;;;;;13.49;74.39;99026.19;131268;1253;107395;-71
2023/03/25 08:51:45;;;;;;;5.50;3.70;;;;;;;13.51;74.05;99020.17;131182;1251;107427;-70
2023/03/25 08:54:51;;;;;;;6.70;3.30;;;;;;;13.49;74.29;99017.61;131289;1253;105750;-70
2023/03/25 08:57:56;;;;;;;6.40;3.30;;;;;;;13.46;74.01;99018.80;131238;1254;107476;-70
2023/03/25 09:01:02;;;;;;;5.50;3.40;;;;;;;13.48;74.05;99022.90;131174;1255;107507;-70
2023/03/25 09:04:07;;;;;;;4.80;3.30;;;;;;;13.46;73.10;99024.95;130958;1254;107061;-70
2023/03/25 09:07:13;;;;;;;6.60;3.50;;;;;;;13.41;73.25;99021.55;131067;1250;107510;-70
2023/03/25 09:10:19;;;;;;;4.90;3.50;;;;;;;13.43;73.22;99010.51;130868;1254;108175;-70
2023/03/25 09:13:25;;;;;;;6.20;3.40;;;;;;;13.46;73.36;99003.52;131086;1254;107524;-73
2023/03/25 09:16:30;;;;;;;5.60;3.30;;;;;;;13.56;73.46;98997.17;131142;1254;105629;-70
2023/03/25 09:19:37;;;;;;;4.10;3.40;;;;;;;13.73;73.44;98993.04;131203;1255;107466;-71
2023/03/25 09:22:43;;;;;;;5.20;3.20;;;;;;;13.87;73.12;98986.16;131153;1254;107245;-71
2023/03/25 09:25:48;;;;;;;5.00;3.10;;;;;;;14.06;73.23;98979.44;131022;1254;107390;-70
2023/03/25 09:28:55;;;;;;;5.40;3.00;;;;;;;14.33;72.71;98971.20;131076;1254;107493;-70
2023/03/25 09:32:01;;;;;;;5.60;2.90;;;;;;;14.46;70.25;98977.45;131041;1253;108383;-70
2023/03/25 09:35:08;;;;;;;4.90;3.10;;;;;;;14.51;69.93;98976.61;131101;1254;107368;-70
2023/03/25 09:38:14;;;;;;;5.20;3.30;;;;;;;14.57;69.58;98976.71;131049;1250;107218;-70
2023/03/25 09:41:32;;;;;;;6.30;4.80;;;;;;;14.53;68.68;98969.55;131025;1254;108052;-70
2023/03/25 09:44:49;;;;;;;5.30;4.00;;;;;;;14.55;69.21;98964.10;131093;1250;107834;-70
2023/03/25 09:48:01;;;;;;;4.60;3.90;;;;;;;14.51;69.96;98963.89;131106;1254;107552;-70
2023/03/25 09:51:13;;;;;;;5.00;3.70;;;;;;;14.45;69.93;98961.64;131029;1254;107970;-70
2023/03/25 09:54:22;;;;;;;;;;;;;;;14.47;70.22;98964.19;131159;1251;108362;-70
2023/03/25 09:57:31;;;;;;;5.00;3.60;;;;;;;14.49;69.92;98961.79;130825;1253;107898;-70
2023/03/25 10:00:37;;;;;;;5.10;3.60;;;;;;;14.51;70.23;98964.48;130828;1253;108092;-70
2023/03/25 10:03:54;;;;;;;5.20;3.30;;;;;;;14.48;67.94;98963.83;130874;1255;107951;-70
2023/03/25 10:07:11;;;;;;;5.50;3.70;;;;;;;14.53;68.95;98960.19;131240;1263;107235;-69
2023/03/25 10:10:25;;;;;;;4.90;3.70;;;;;;;14.54;66.87;98958.60;131316;1254;108694;-70
2023/03/25 10:13:40;;;;;;;4.20;2.90;;;;;;;14.67;69.30;98952.23;131116;1250;109229;-70
2023/03/25 10:16:56;;;;;;;5.00;2.80;;;;;;;14.92;69.03;98946.15;130954;1251;108113;-71
2023/03/25 10:20:11;;;;;;;4.00;3.00;;;;;;;15.11;69.00;98947.75;131035;1253;107988;-70
2023/03/25 10:23:26;;;;;;;4.40;3.10;;;;;;;15.13;67.84;98952.29;130888;1254;108317;-71
2023/03/25 10:26:47;;;;;;;5.00;2.90;;;;;;;15.12;67.81;98950.67;131034;1253;108149;-70
2023/03/25 10:29:57;;;;;;;4.90;3.30;;;;;;;15.10;67.79;98949.48;131088;1256;107117;-71
2023/03/25 10:33:09;;;;;;;5.10;3.60;;;;;;;15.06;67.25;98945.01;131177;1254;107944;-70
2023/03/25 10:36:18;;;;;;;4.60;3.30;;;;;;;15.05;66.97;98939.19;131193;1251;108114;-69
2023/03/25 10:39:32;;;;;;;5.10;3.10;;;;;;;15.19;67.53;98934.15;131123;1254;108065;-70
2023/03/25 10:42:45;;;;;;;6.20;3.50;;;;;;;15.39;67.81;98930.80;131046;1250;107824;-70
2023/03/25 10:45:54;;;;;;;5.00;3.30;;;;;;;15.46;65.85;98933.52;131130;1253;107918;-72
2023/03/25 10:49:00;;;;;;;6.60;4.20;;;;;;;15.45;66.12;98926.12;131223;1254;107368;-70
2023/03/25 10:52:06;;;;;;;8.10;4.90;;;;;;;15.60;66.82;98923.38;130892;1257;107425;-70
2023/03/25 10:55:24;;;;;;;4.50;2.80;;;;;;;15.83;65.83;98922.61;130902;1254;108203;-70
2023/03/25 10:58:30;;;;;;;4.30;2.70;;;;;;;15.92;64.08;98923.86;130878;1251;107525;-70
2023/03/25 11:01:40;;;;;;;3.70;2.70;;;;;;;15.91;63.89;98922.20;130942;1250;108087;-70
2023/03/25 11:04:49;;;;;;;4.60;2.60;;;;;;;15.97;64.20;98916.48;131024;1255;107277;-70
2023/03/25 11:07:57;;;;;;;4.90;2.50;;;;;;;15.81;61.74;98915.38;131208;1250;107962;-71
2023/03/25 11:11:04;;;;;;;3.80;2.40;;;;;;;15.50;62.71;98915.11;131207;1254;107559;-70
2023/03/25 11:14:12;;;;;;;3.70;2.10;;;;;;;15.46;63.24;98917.60;131239;1254;107985;-69
2023/03/25 11:17:40;;;;;;;4.60;2.20;;;;;;;15.40;62.89;98917.36;131117;1254;108109;-72
2023/03/25 11:20:51;;;;;;;3.30;2.30;;;;;;;15.34;62.65;98915.98;130693;1254;107217;-68
2023/03/25 11:23:58;;;;;;;4.10;2.30;;;;;;;15.35;62.80;98910.40;130793;1265;107792;-70
2023/03/25 11:27:07;;;;;;;4.30;2.50;;;;;;;15.43;63.18;98913.03;130984;1253;108036;-70
2023/03/25 11:30:19;;;;;;;3.70;2.30;;;;;;;15.55;63.33;98910.30;131064;1254;107441;-70
2023/03/25 11:33:27;;;;;;;2.80;2.30;;;;;;;15.64;62.86;98913.86;130988;1254;107589;-71
2023/03/25 11:36:36;;;;;;;3.50;2.60;;;;;;;15.63;62.02;98914.71;130944;1250;107429;-71
2023/03/25 11:39:42;;;;;;;4.60;2.60;;;;;;;15.47;62.45;98905.98;131122;1250;108503;-71
2023/03/25 11:42:54;;;;;;;5.90;3.40;;;;;;;15.33;62.35;98909.01;131098;1254;107463;-71
2023/03/25 11:46:10;;;;;;;3.80;2.50;;;;;;;15.24;62.93;98907.38;131176;1254;107449;-71
2023/03/25 11:49:20;;;;;;;4.30;2.80;;;;;;;15.30;63.24;98908.36;130998;1253;107536;-71
2023/03/25 11:52:28;;;;;;;6.10;3.40;;;;;;;15.40;62.77;98907.69;130982;1255;107255;-71
2023/03/25 11:55:46;;;;;;;4.20;2.30;;;;;;;15.37;62.19;98909.08;131128;1255;107439;-70
2023/03/25 11:58:57;;;;;;;4.00;2.60;;;;;;;15.33;62.68;98914.21;131076;1255;106456;-70
2023/03/25 12:02:16;;;;;;;3.90;2.40;;;;;;;15.28;62.68;98914.21;130992;1254;107464;-72
2023/03/25 12:05:22;;;;;;;4.80;2.70;;;;;;;15.08;61.28;98919.04;130980;1255;107307;-72
2023/03/25 12:08:31;;;;;;;5.20;3.00;;;;;;;14.76;62.57;98930.85;131125;1253;108593;-73
2023/03/25 12:11:46;;;;;;;4.80;3.50;;;;;;;14.41;63.30;98937.55;131367;1253;108559;-73
2023/03/25 12:14:59;;;;;;;6.00;3.80;;;;;;;13.98;64.64;98935.67;131142;1255;107699;-73
2023/03/25 12:18:19;;;;;;;5.00;2.80;;;;;;;13.76;65.63;98945.08;131083;1255;107949;-73
2023/03/25 12:21:38;;;;;;;3.40;2.20;;;;;;;13.69;66.01;98943.48;131008;1254;107523;-73
2023/03/25 12:25:09;;;;;;;3.50;2.50;;;;;;;13.78;66.28;98941.41;131357;1253;107596;-73
2023/03/25 12:28:33;;;;;;;6.00;2.60;;;;;;;13.98;66.88;98924.19;131008;1255;107432;-71
2023/03/25 12:31:53;;;;;;;4.70;2.40;;;;;;;14.21;67.06;98915.41;130964;1255;107437;-71
2023/03/25 12:35:16;;;;;;;3.10;2.00;;;;;;;14.36;66.96;98910.50;131038;1254;107901;-71
2023/03/25 12:38:37;;;;;;;3.80;2.60;;;;;;;14.48;66.69;98900.11;131145;1254;107583;-70
2023/03/25 12:41:49;;;;;;;4.50;2.90;;;;;;;14.43;66.15;98900.99;131181;1251;109676;-70
2023/03/25 12:45:14;;;;;;;5.00;3.50;;;;;;;14.28;66.22;98893.14;131127;1255;106851;-71
2023/03/25 12:48:35;;;;;;;6.00;3.90;;;;;;;14.19;65.86;98899.24;131270;1252;106671;-70
2023/03/25 12:51:53;;;;;;;7.30;4.00;;;;;;;14.05;66.21;98901.50;130946;1254;107943;-70
2023/03/25 12:55:20;;;;;;;5.40;4.30;;;;;;;14.00;65.90;98891.31;130809;1255;106298;-70
2023/03/25 12:58:39;;;;;;;6.00;4.40;;;;;;;13.91;66.41;98885.34;131010;1249;108414;-71
2023/03/25 13:01:53;;;;;;;4.80;4.00;;;;;;;14.05;66.60;98881.48;131068;1250;106496;-69
2023/03/25 13:05:14;;;;;;;5.30;3.80;;;;;;;14.28;66.57;98872.05;130915;1255;107503;-70
2023/03/25 13:08:27;;;;;;;5.10;4.30;;;;;;;14.43;66.42;98870.27;130817;1254;107538;-70
2023/03/25 13:11:40;;;;;;;6.70;5.10;;;;;;;14.37;66.05;98868.27;131119;1253;108622;-72
2023/03/25 13:14:51;;;;;;;6.20;4.40;;;;;;;14.25;66.02;98863.44;131051;1254;107975;-70
2023/03/25 13:18:02;;;;;;;11.80;8.60;;;;;;;14.11;66.01;98857.13;130876;1256;108433;-70
2023/03/25 13:21:15;;;;;;;16.10;10.80;;;;;;;13.99;66.06;98860.41;131095;1254;107422;-70
2023/03/25 13:24:27;;;;;;;6.70;5.30;;;;;;;14.00;66.49;98860.41;131303;1254;107537;-70
2023/03/25 13:27:36;;;;;;;5.70;4.30;;;;;;;14.09;66.31;98856.92;131234;1255;107842;-70
2023/03/25 13:30:45;;;;;;;6.40;4.40;;;;;;;14.16;66.10;98852.23;130950;1254;106490;-70
2023/03/25 13:33:57;;;;;;;4.30;3.30;;;;;;;14.29;65.74;98848.20;130848;1255;107522;-71
2023/03/25 13:37:12;;;;;;;6.10;4.30;;;;;;;14.46;65.61;98842.56;130809;1254;109159;-70
2023/03/25 13:40:29;;;;;;;4.00;3.10;;;;;;;14.45;64.86;98839.34;131145;1255;108122;-69
2023/03/25 13:43:42;;;;;;;4.70;3.10;;;;;;;14.44;64.68;98837.92;131125;1249;107817;-70
2023/03/25 13:46:51;;;;;;;5.70;3.40;;;;;;;14.32;64.24;98834.40;130949;1252;107243;-70
2023/03/25 13:50:02;;;;;;;4.70;3.60;;;;;;;14.21;64.47;98833.98;131074;1265;108657;-70
2023/03/25 13:53:13;;;;;;;7.60;4.00;;;;;;;14.12;64.72;98832.02;131054;1254;108122;-71
2023/03/25 13:56:55;;;;;;;5.80;4.20;;;;;;;14.01;64.84;98863.91;130967;1256;107210;-70
2023/03/25 14:00:36;;;;;;;2.40;1.80;;;;;;;13.58;62.69;98916.89;131184;1250;107220;-70
2023/03/25 14:04:08;;;;;;;1.90;1.50;;;;;;;12.74;64.22;98936.73;130971;1255;107409;-70
2023/03/25 14:07:53;;;;;;;6.60;2.40;;;;;;;11.83;66.48;98929.58;130799;1255;108043;-70
2023/03/25 14:11:12;;;;;;;3.10;1.90;;;;;;;11.23;67.97;98933.44;130281;1260;108160;-71
2023/03/25 14:14:21;;;;;;;2.50;1.30;;;;;;;11.01;68.98;98928.89;131050;1254;107573;-70
2023/03/25 14:17:28;;;;;;;3.20;1.40;;;;;;;10.87;68.80;98932.02;130796;1254;137080;-70
2023/03/25 14:20:38;;;;;;;1.50;1.20;;;;;;;10.74;69.44;98937.19;130909;1255;107409;-70
2023/03/25 14:23:44;;;;;;;1.90;1.20;;;;;;;10.64;69.90;98938.47;130836;1258;107510;-70
2023/03/25 14:26:52;;;;;;;3.20;1.70;;;;;;;10.56;69.91;98930.98;130803;1254;106700;-70
2023/03/25 14:30:00;;;;;;;2.10;1.30;;;;;;;10.55;69.66;98918.26;130669;1255;107086;-70
2023/03/25 14:33:08;;;;;;;1.80;1.20;;;;;;;10.51;70.44;98901.50;131187;1251;108140;-71
2023/03/25 14:36:15;;;;;;;1.80;1.10;;;;;;;10.50;70.56;98890.48;131109;1255;107526;-72